Arlington, Minnesota
Current Conditions -  °F | °C
As of 2:54 AM on Friday 31 Oct 2014 (Local Time) from KGYL Reporting Station
Clear Clear  
Wind Chill: -7°   Ceiling: Unl
Heat Index: -2°   Visibility: 10mi
Dew Point: -8°   Wind: 10mph
Humidity: 63%   Direction: 330°NNW
Pressure: 30.46"   Gusts: NA
Location:  44.61°N, 94.08°W
Report Text: KGYL 310754Z AUTO 33009KT 10SM CLR M01/M08 A3046 RMK AO2 T10151078
Loading
Personal Weather Stations






























Interactive Weather Map
Tropical Storm Tracking
New forecast layout! Learn more

10-Day Weather Forecast

Advertisements
Track Severe Weather on mobile